sensor_id;sensor_type;location;lat;lon;timestamp;pressure;altitude;pressure_sealevel;temperature;humidity
35704;BME280;21820;51.112;13.762;2023-07-22T00:00:53;99073.88;;;25.85;51.09
35704;BME280;21820;51.112;13.762;2023-07-22T00:03:19;99060.53;;;25.72;51.95
35704;BME280;21820;51.112;13.762;2023-07-22T00:05:44;99079.47;;;26.04;54.29
35704;BME280;21820;51.112;13.762;2023-07-22T00:08:09;99076.22;;;26.17;54.80
35704;BME280;21820;51.112;13.762;2023-07-22T00:10:35;99084.19;;;26.23;55.03
35704;BME280;21820;51.112;13.762;2023-07-22T00:13:00;99068.94;;;26.19;55.20
35704;BME280;21820;51.112;13.762;2023-07-22T00:15:26;99090.19;;;26.32;55.59
35704;BME280;21820;51.112;13.762;2023-07-22T00:17:51;99081.13;;;26.34;55.55
35704;BME280;21820;51.112;13.762;2023-07-22T00:20:17;99091.50;;;26.36;55.69
35704;BME280;21820;51.112;13.762;2023-07-22T00:22:42;99087.66;;;26.38;54.90
35704;BME280;21820;51.112;13.762;2023-07-22T00:25:11;99090.28;;;26.38;55.51
35704;BME280;21820;51.112;13.762;2023-07-22T00:27:38;99086.66;;;26.39;55.00
35704;BME280;21820;51.112;13.762;2023-07-22T00:30:07;99082.00;;;26.41;55.36
35704;BME280;21820;51.112;13.762;2023-07-22T00:32:32;99083.84;;;26.41;55.01
35704;BME280;21820;51.112;13.762;2023-07-22T00:34:58;99083.66;;;26.13;52.29
35704;BME280;21820;51.112;13.762;2023-07-22T00:37:24;99094.69;;;25.94;50.69
35704;BME280;21820;51.112;13.762;2023-07-22T00:39:50;99070.50;;;25.76;50.59
35704;BME280;21820;51.112;13.762;2023-07-22T00:42:15;99087.81;;;25.93;53.87
35704;BME280;21820;51.112;13.762;2023-07-22T00:44:41;99076.19;;;26.02;54.87
35704;BME280;21820;51.112;13.762;2023-07-22T00:47:07;99080.03;;;26.14;54.56
35704;BME280;21820;51.112;13.762;2023-07-22T00:49:34;99082.56;;;26.22;55.17
35704;BME280;21820;51.112;13.762;2023-07-22T00:52:01;99094.03;;;26.29;55.04
35704;BME280;21820;51.112;13.762;2023-07-22T00:54:28;99075.59;;;26.29;54.75
35704;BME280;21820;51.112;13.762;2023-07-22T00:56:54;99078.50;;;26.34;55.26
35704;BME280;21820;51.112;13.762;2023-07-22T00:59:19;99077.47;;;26.35;54.78
35704;BME280;21820;51.112;13.762;2023-07-22T01:01:46;99083.41;;;26.37;55.35
35704;BME280;21820;51.112;13.762;2023-07-22T01:04:13;99084.03;;;26.39;55.36
35704;BME280;21820;51.112;13.762;2023-07-22T01:06:40;99093.75;;;26.39;55.16
35704;BME280;21820;51.112;13.762;2023-07-22T01:09:05;99083.22;;;26.39;55.21
35704;BME280;21820;51.112;13.762;2023-07-22T01:11:32;99090.84;;;26.48;55.80
35704;BME280;21820;51.112;13.762;2023-07-22T01:13:57;99090.06;;;25.96;51.08
35704;BME280;21820;51.112;13.762;2023-07-22T01:16:26;99088.22;;;25.82;50.84
35704;BME280;21820;51.112;13.762;2023-07-22T01:18:52;99081.50;;;25.80;51.57
35704;BME280;21820;51.112;13.762;2023-07-22T01:21:19;99091.19;;;26.02;54.53
35704;BME280;21820;51.112;13.762;2023-07-22T01:23:45;99093.13;;;26.22;55.03
35704;BME280;21820;51.112;13.762;2023-07-22T01:26:11;99095.75;;;26.22;54.64
35704;BME280;21820;51.112;13.762;2023-07-22T01:28:37;99082.22;;;26.25;54.71
35704;BME280;21820;51.112;13.762;2023-07-22T01:31:02;99088.75;;;26.29;55.06
35704;BME280;21820;51.112;13.762;2023-07-22T01:33:30;99087.13;;;26.28;55.58
35704;BME280;21820;51.112;13.762;2023-07-22T01:35:56;99084.75;;;26.33;54.90
35704;BME280;21820;51.112;13.762;2023-07-22T01:38:21;99086.41;;;26.34;55.12
35704;BME280;21820;51.112;13.762;2023-07-22T01:40:46;99093.94;;;26.37;55.33
35704;BME280;21820;51.112;13.762;2023-07-22T01:43:13;99099.84;;;26.39;55.44
35704;BME280;21820;51.112;13.762;2023-07-22T01:45:38;99104.28;;;26.39;55.28
35704;BME280;21820;51.112;13.762;2023-07-22T01:48:05;99099.84;;;26.39;55.02
35704;BME280;21820;51.112;13.762;2023-07-22T01:50:31;99090.03;;;26.33;53.68
35704;BME280;21820;51.112;13.762;2023-07-22T01:52:56;99101.50;;;25.89;51.38
35704;BME280;21820;51.112;13.762;2023-07-22T01:55:22;99104.75;;;25.76;51.18
35704;BME280;21820;51.112;13.762;2023-07-22T01:57:47;99098.56;;;25.69;53.27
35704;BME280;21820;51.112;13.762;2023-07-22T02:00:13;99107.00;;;26.02;54.57
35704;BME280;21820;51.112;13.762;2023-07-22T02:02:41;99101.13;;;26.14;54.94
35704;BME280;21820;51.112;13.762;2023-07-22T02:05:07;99113.56;;;26.20;54.96
35704;BME280;21820;51.112;13.762;2023-07-22T02:07:33;99120.91;;;26.25;55.16
35704;BME280;21820;51.112;13.762;2023-07-22T02:09:59;99120.38;;;26.29;54.91
35704;BME280;21820;51.112;13.762;2023-07-22T02:12:24;99115.72;;;26.31;55.26
35704;BME280;21820;51.112;13.762;2023-07-22T02:14:49;99127.75;;;26.34;55.35
35704;BME280;21820;51.112;13.762;2023-07-22T02:17:15;99119.66;;;26.35;55.70
35704;BME280;21820;51.112;13.762;2023-07-22T02:19:40;99106.56;;;26.27;54.90
35704;BME280;21820;51.112;13.762;2023-07-22T02:22:05;99129.84;;;26.38;55.56
35704;BME280;21820;51.112;13.762;2023-07-22T02:24:31;99130.66;;;26.39;55.16
35704;BME280;21820;51.112;13.762;2023-07-22T02:26:57;99126.22;;;26.39;55.36
35704;BME280;21820;51.112;13.762;2023-07-22T02:29:22;99122.00;;;26.30;55.16
35704;BME280;21820;51.112;13.762;2023-07-22T02:31:47;99135.09;;;25.87;51.68
35704;BME280;21820;51.112;13.762;2023-07-22T02:34:13;99136.34;;;25.76;51.34
35704;BME280;21820;51.112;13.762;2023-07-22T02:36:38;99141.63;;;25.76;52.25
35704;BME280;21820;51.112;13.762;2023-07-22T02:39:03;99143.06;;;26.01;54.72
35704;BME280;21820;51.112;13.762;2023-07-22T02:41:29;99145.91;;;26.14;54.94
35704;BME280;21820;51.112;13.762;2023-07-22T02:43:54;99143.56;;;26.19;55.19
35704;BME280;21820;51.112;13.762;2023-07-22T02:46:19;99141.03;;;26.26;55.61
35704;BME280;21820;51.112;13.762;2023-07-22T02:48:45;99144.28;;;26.28;55.25
35704;BME280;21820;51.112;13.762;2023-07-22T02:51:10;99152.03;;;26.29;55.06
35704;BME280;21820;51.112;13.762;2023-07-22T02:53:36;99151.66;;;26.32;55.22
35704;BME280;21820;51.112;13.762;2023-07-22T02:56:03;99150.47;;;26.35;55.63
35704;BME280;21820;51.112;13.762;2023-07-22T02:58:29;99148.00;;;26.33;55.09
35704;BME280;21820;51.112;13.762;2023-07-22T03:00:54;99152.63;;;26.31;55.27
35704;BME280;21820;51.112;13.762;2023-07-22T03:03:19;99155.38;;;26.38;55.67
35704;BME280;21820;51.112;13.762;2023-07-22T03:05:45;99142.47;;;26.28;55.41
35704;BME280;21820;51.112;13.762;2023-07-22T03:08:10;99161.28;;;26.25;52.70
35704;BME280;21820;51.112;13.762;2023-07-22T03:10:36;99146.81;;;25.84;51.63
35704;BME280;21820;51.112;13.762;2023-07-22T03:13:01;99164.97;;;25.79;51.35
35704;BME280;21820;51.112;13.762;2023-07-22T03:15:29;99167.59;;;25.79;53.37
35704;BME280;21820;51.112;13.762;2023-07-22T03:17:55;99185.69;;;26.05;54.76
35704;BME280;21820;51.112;13.762;2023-07-22T03:20:22;99174.91;;;26.14;54.44
35704;BME280;21820;51.112;13.762;2023-07-22T03:22:48;99175.00;;;26.21;54.65
35704;BME280;21820;51.112;13.762;2023-07-22T03:25:15;99185.00;;;26.25;54.79
35704;BME280;21820;51.112;13.762;2023-07-22T03:27:42;99186.63;;;26.26;55.39
35704;BME280;21820;51.112;13.762;2023-07-22T03:30:11;99180.38;;;26.27;55.84
35704;BME280;21820;51.112;13.762;2023-07-22T03:32:37;99171.25;;;26.30;55.49
35704;BME280;21820;51.112;13.762;2023-07-22T03:35:02;99168.16;;;26.26;55.53
35704;BME280;21820;51.112;13.762;2023-07-22T03:37:28;99180.09;;;26.37;55.42
35704;BME280;21820;51.112;13.762;2023-07-22T03:39:54;99188.19;;;26.35;55.29
35704;BME280;21820;51.112;13.762;2023-07-22T03:42:19;99191.47;;;26.37;55.45
35704;BME280;21820;51.112;13.762;2023-07-22T03:44:45;99192.13;;;26.39;55.26
35704;BME280;21820;51.112;13.762;2023-07-22T03:47:10;99195.03;;;26.07;51.60
35704;BME280;21820;51.112;13.762;2023-07-22T03:49:35;99205.03;;;25.89;52.23
35704;BME280;21820;51.112;13.762;2023-07-22T03:52:01;99191.75;;;25.83;51.21
35704;BME280;21820;51.112;13.762;2023-07-22T03:54:26;99202.22;;;25.91;54.28
35704;BME280;21820;51.112;13.762;2023-07-22T03:56:51;99203.59;;;26.09;54.49
35704;BME280;21820;51.112;13.762;2023-07-22T03:59:17;99194.78;;;26.17;55.23
35704;BME280;21820;51.112;13.762;2023-07-22T04:01:42;99192.25;;;26.23;54.72
35704;BME280;21820;51.112;13.762;2023-07-22T04:04:08;99193.72;;;26.26;55.55
35704;BME280;21820;51.112;13.762;2023-07-22T04:06:33;99192.53;;;26.28;55.27
35704;BME280;21820;51.112;13.762;2023-07-22T04:08:59;99170.88;;;26.18;55.32
35704;BME280;21820;51.112;13.762;2023-07-22T04:11:25;99190.91;;;26.27;54.90
35704;BME280;21820;51.112;13.762;2023-07-22T04:13:51;99185.63;;;26.27;55.07
35704;BME280;21820;51.112;13.762;2023-07-22T04:16:16;99170.88;;;26.18;55.38
35704;BME280;21820;51.112;13.762;2023-07-22T04:18:42;99189.25;;;26.26;55.94
35704;BME280;21820;51.112;13.762;2023-07-22T04:21:07;99195.34;;;26.27;55.52
35704;BME280;21820;51.112;13.762;2023-07-22T04:23:32;99191.75;;;26.28;56.07
35704;BME280;21820;51.112;13.762;2023-07-22T04:25:58;99183.78;;;25.91;51.77
35704;BME280;21820;51.112;13.762;2023-07-22T04:28:23;99206.09;;;25.80;51.43
35704;BME280;21820;51.112;13.762;2023-07-22T04:30:58;99205.53;;;25.70;51.41
35704;BME280;21820;51.112;13.762;2023-07-22T04:33:25;99203.00;;;25.77;54.45
35704;BME280;21820;51.112;13.762;2023-07-22T04:35:53;99208.25;;;25.99;55.22
35704;BME280;21820;51.112;13.762;2023-07-22T04:38:19;99224.31;;;26.12;54.95
35704;BME280;21820;51.112;13.762;2023-07-22T04:40:44;99228.88;;;26.18;55.03
35704;BME280;21820;51.112;13.762;2023-07-22T04:43:09;99233.81;;;26.21;55.29
35704;BME280;21820;51.112;13.762;2023-07-22T04:45:35;99223.88;;;26.23;55.21
35704;BME280;21820;51.112;13.762;2023-07-22T04:48:01;99220.25;;;26.24;54.90
35704;BME280;21820;51.112;13.762;2023-07-22T04:50:27;99213.97;;;26.25;55.04
35704;BME280;21820;51.112;13.762;2023-07-22T04:52:52;99220.88;;;26.26;55.30
35704;BME280;21820;51.112;13.762;2023-07-22T04:55:17;99215.50;;;26.20;55.60
35704;BME280;21820;51.112;13.762;2023-07-22T04:57:42;99226.97;;;26.27;55.35
35704;BME280;21820;51.112;13.762;2023-07-22T05:00:13;99234.06;;;26.26;56.00
35704;BME280;21820;51.112;13.762;2023-07-22T05:02:40;99228.78;;;26.26;56.00
35704;BME280;21820;51.112;13.762;2023-07-22T05:05:06;99234.59;;;25.99;52.26
35704;BME280;21820;51.112;13.762;2023-07-22T05:07:32;99235.78;;;25.74;51.35
35704;BME280;21820;51.112;13.762;2023-07-22T05:09:57;99231.50;;;25.73;50.92
35704;BME280;21820;51.112;13.762;2023-07-22T05:12:22;99238.34;;;25.82;54.87
35704;BME280;21820;51.112;13.762;2023-07-22T05:14:48;99234.28;;;26.02;54.33
35704;BME280;21820;51.112;13.762;2023-07-22T05:17:14;99242.75;;;26.12;54.66
35704;BME280;21820;51.112;13.762;2023-07-22T05:19:39;99241.06;;;26.19;55.38
35704;BME280;21820;51.112;13.762;2023-07-22T05:22:05;99244.34;;;26.21;55.27
35704;BME280;21820;51.112;13.762;2023-07-22T05:24:30;99252.06;;;26.23;55.58
35704;BME280;21820;51.112;13.762;2023-07-22T05:26:56;99242.31;;;26.23;55.41
35704;BME280;21820;51.112;13.762;2023-07-22T05:29:21;99247.09;;;26.28;54.97
35704;BME280;21820;51.112;13.762;2023-07-22T05:31:46;99254.16;;;26.27;55.61
35704;BME280;21820;51.112;13.762;2023-07-22T05:34:12;99246.91;;;26.29;55.02
35704;BME280;21820;51.112;13.762;2023-07-22T05:36:37;99251.16;;;26.30;55.44
35704;BME280;21820;51.112;13.762;2023-07-22T05:39:03;99259.91;;;26.31;55.18
35704;BME280;21820;51.112;13.762;2023-07-22T05:41:28;99262.34;;;26.32;55.07
35704;BME280;21820;51.112;13.762;2023-07-22T05:43:54;99263.91;;;26.04;52.05
35704;BME280;21820;51.112;13.762;2023-07-22T05:46:19;99256.13;;;25.80;51.34
35704;BME280;21820;51.112;13.762;2023-07-22T05:48:44;99259.81;;;25.71;51.05
35704;BME280;21820;51.112;13.762;2023-07-22T05:51:10;99244.66;;;25.73;54.26
35704;BME280;21820;51.112;13.762;2023-07-22T05:53:35;99267.50;;;26.03;54.32
35704;BME280;21820;51.112;13.762;2023-07-22T05:56:00;99264.84;;;26.11;54.90
35704;BME280;21820;51.112;13.762;2023-07-22T05:58:26;99258.38;;;26.14;55.46
35704;BME280;21820;51.112;13.762;2023-07-22T06:00:53;99260.31;;;26.20;54.96
35704;BME280;21820;51.112;13.762;2023-07-22T06:03:19;99266.88;;;26.24;55.33
35704;BME280;21820;51.112;13.762;2023-07-22T06:05:46;99271.97;;;26.25;55.25
35704;BME280;21820;51.112;13.762;2023-07-22T06:08:11;99283.81;;;26.29;55.65
35704;BME280;21820;51.112;13.762;2023-07-22T06:10:37;99274.06;;;26.30;55.26
35704;BME280;21820;51.112;13.762;2023-07-22T06:13:03;99280.81;;;26.32;55.69
35704;BME280;21820;51.112;13.762;2023-07-22T06:15:29;99276.50;;;26.31;54.93
35704;BME280;21820;51.112;13.762;2023-07-22T06:17:54;99269.50;;;26.24;55.74
35704;BME280;21820;51.112;13.762;2023-07-22T06:20:19;99285.25;;;26.32;55.65
35704;BME280;21820;51.112;13.762;2023-07-22T06:22:45;99277.09;;;25.96;52.13
35704;BME280;21820;51.112;13.762;2023-07-22T06:25:13;99292.03;;;25.81;51.19
35704;BME280;21820;51.112;13.762;2023-07-22T06:27:38;99284.53;;;25.62;51.47
35704;BME280;21820;51.112;13.762;2023-07-22T06:30:04;99298.75;;;25.84;53.99
35704;BME280;21820;51.112;13.762;2023-07-22T06:32:30;99298.34;;;26.03;54.65
35704;BME280;21820;51.112;13.762;2023-07-22T06:34:56;99298.09;;;26.12;54.95
35704;BME280;21820;51.112;13.762;2023-07-22T06:37:23;99294.81;;;26.10;54.95
35704;BME280;21820;51.112;13.762;2023-07-22T06:39:48;99304.97;;;26.21;55.27
35704;BME280;21820;51.112;13.762;2023-07-22T06:42:14;99299.31;;;26.24;55.64
35704;BME280;21820;51.112;13.762;2023-07-22T06:44:39;99289.59;;;26.25;55.41
35704;BME280;21820;51.112;13.762;2023-07-22T06:47:05;99290.88;;;26.29;55.42
35704;BME280;21820;51.112;13.762;2023-07-22T06:49:30;99303.06;;;26.30;55.49
35704;BME280;21820;51.112;13.762;2023-07-22T06:51:56;99301.91;;;26.32;54.99
35704;BME280;21820;51.112;13.762;2023-07-22T06:54:21;99300.25;;;26.31;55.12
35704;BME280;21820;51.112;13.762;2023-07-22T06:56:47;99286.16;;;26.24;55.15
35704;BME280;21820;51.112;13.762;2023-07-22T06:59:12;99304.53;;;26.32;55.02
35704;BME280;21820;51.112;13.762;2023-07-22T07:01:37;99294.41;;;25.91;51.51
35704;BME280;21820;51.112;13.762;2023-07-22T07:04:03;99319.69;;;25.77;51.29
35704;BME280;21820;51.112;13.762;2023-07-22T07:06:28;99319.09;;;25.67;51.05
35704;BME280;21820;51.112;13.762;2023-07-22T07:08:54;99307.81;;;25.81;54.20
35704;BME280;21820;51.112;13.762;2023-07-22T07:11:20;99316.97;;;26.01;54.53
35704;BME280;21820;51.112;13.762;2023-07-22T07:13:45;99307.97;;;26.10;54.89
35704;BME280;21820;51.112;13.762;2023-07-22T07:16:24;99306.94;;;26.19;55.08
35704;BME280;21820;51.112;13.762;2023-07-22T07:18:50;99314.84;;;26.19;55.17
35704;BME280;21820;51.112;13.762;2023-07-22T07:21:17;99319.75;;;26.22;55.16
35704;BME280;21820;51.112;13.762;2023-07-22T07:23:42;99323.66;;;26.26;55.72
35704;BME280;21820;51.112;13.762;2023-07-22T07:26:07;99322.69;;;26.27;55.75
35704;BME280;21820;51.112;13.762;2023-07-22T07:28:33;99316.47;;;26.20;54.93
35704;BME280;21820;51.112;13.762;2023-07-22T07:30:58;99332.22;;;26.28;55.18
35704;BME280;21820;51.112;13.762;2023-07-22T07:33:23;99332.22;;;26.28;54.98
35704;BME280;21820;51.112;13.762;2023-07-22T07:35:49;99331.25;;;26.29;55.58
35704;BME280;21820;51.112;13.762;2023-07-22T07:38:14;99348.69;;;26.30;55.41
35704;BME280;21820;51.112;13.762;2023-07-22T07:40:40;99335.63;;;25.84;51.32
35704;BME280;21820;51.112;13.762;2023-07-22T07:43:05;99337.19;;;25.70;51.35
35704;BME280;21820;51.112;13.762;2023-07-22T07:45:30;99344.78;;;25.65;51.22
35704;BME280;21820;51.112;13.762;2023-07-22T07:47:56;99349.09;;;25.89;54.56
35704;BME280;21820;51.112;13.762;2023-07-22T07:50:22;99351.81;;;26.03;54.56
35704;BME280;21820;51.112;13.762;2023-07-22T07:52:47;99352.78;;;26.10;55.03
35704;BME280;21820;51.112;13.762;2023-07-22T07:55:13;99357.38;;;26.16;54.71
35704;BME280;21820;51.112;13.762;2023-07-22T07:57:38;99349.75;;;26.21;55.21
35704;BME280;21820;51.112;13.762;2023-07-22T08:00:04;99358.28;;;26.23;55.09
35704;BME280;21820;51.112;13.762;2023-07-22T08:02:30;99363.56;;;26.23;54.96
35704;BME280;21820;51.112;13.762;2023-07-22T08:04:55;99357.94;;;26.26;55.58
35704;BME280;21820;51.112;13.762;2023-07-22T08:07:20;99356.97;;;26.27;55.27
35704;BME280;21820;51.112;13.762;2023-07-22T08:09:47;99354.31;;;26.27;55.79
35704;BME280;21820;51.112;13.762;2023-07-22T08:12:14;99360.41;;;26.28;55.65
35704;BME280;21820;51.112;13.762;2023-07-22T08:14:39;99355.16;;;26.28;55.43
35704;BME280;21820;51.112;13.762;2023-07-22T08:17:05;99357.50;;;26.15;53.02
35704;BME280;21820;51.112;13.762;2023-07-22T08:19:30;99359.38;;;25.76;51.26
35704;BME280;21820;51.112;13.762;2023-07-22T08:21:56;99364.50;;;25.69;51.06
35704;BME280;21820;51.112;13.762;2023-07-22T08:24:21;99362.53;;;25.71;53.84
35704;BME280;21820;51.112;13.762;2023-07-22T08:26:47;99365.03;;;25.95;54.82
35704;BME280;21820;51.112;13.762;2023-07-22T08:29:12;99368.13;;;26.07;55.39
35704;BME280;21820;51.112;13.762;2023-07-22T08:31:37;99356.94;;;26.05;54.99
35704;BME280;21820;51.112;13.762;2023-07-22T08:34:03;99373.19;;;26.16;55.49
35704;BME280;21820;51.112;13.762;2023-07-22T08:36:28;99373.47;;;26.21;55.02
35704;BME280;21820;51.112;13.762;2023-07-22T08:38:53;99368.03;;;26.23;55.23
35704;BME280;21820;51.112;13.762;2023-07-22T08:41:19;99366.00;;;26.25;55.25
35704;BME280;21820;51.112;13.762;2023-07-22T08:43:45;99363.84;;;26.28;55.31
35704;BME280;21820;51.112;13.762;2023-07-22T08:46:15;99361.56;;;26.25;55.33
35704;BME280;21820;51.112;13.762;2023-07-22T08:48:42;99373.75;;;26.26;55.48
35704;BME280;21820;51.112;13.762;2023-07-22T08:51:15;99368.94;;;26.30;55.25
35704;BME280;21820;51.112;13.762;2023-07-22T08:53:43;99352.72;;;26.18;55.84
35704;BME280;21820;51.112;13.762;2023-07-22T08:56:09;99380.22;;;25.85;51.57
35704;BME280;21820;51.112;13.762;2023-07-22T08:58:35;99366.16;;;25.70;51.56
35704;BME280;21820;51.112;13.762;2023-07-22T09:01:02;99378.66;;;25.68;50.87
35704;BME280;21820;51.112;13.762;2023-07-22T09:03:27;99359.19;;;25.77;54.12
35704;BME280;21820;51.112;13.762;2023-07-22T09:05:53;99385.47;;;26.01;54.64
35704;BME280;21820;51.112;13.762;2023-07-22T09:08:19;99377.31;;;26.11;55.41
35704;BME280;21820;51.112;13.762;2023-07-22T09:10:45;99380.44;;;26.14;55.17
35704;BME280;21820;51.112;13.762;2023-07-22T09:13:13;99387.63;;;26.20;55.24
35704;BME280;21820;51.112;13.762;2023-07-22T09:15:39;99366.59;;;26.12;55.56
35704;BME280;21820;51.112;13.762;2023-07-22T09:18:05;99375.47;;;26.19;55.50
35704;BME280;21820;51.112;13.762;2023-07-22T09:20:30;99380.19;;;26.24;54.95
35704;BME280;21820;51.112;13.762;2023-07-22T09:22:56;99367.84;;;26.24;55.19
35704;BME280;21820;51.112;13.762;2023-07-22T09:25:23;99377.38;;;26.25;55.36
35704;BME280;21820;51.112;13.762;2023-07-22T09:27:50;99368.66;;;26.25;55.54
35704;BME280;21820;51.112;13.762;2023-07-22T09:32:57;99349.22;;;25.95;53.12
35704;BME280;21820;51.112;13.762;2023-07-22T09:35:28;99366.59;;;25.73;51.23
35704;BME280;21820;51.112;13.762;2023-07-22T09:37:58;99357.94;;;25.65;51.35
35704;BME280;21820;51.112;13.762;2023-07-22T09:40:25;99349.88;;;25.66;54.21
35704;BME280;21820;51.112;13.762;2023-07-22T09:42:56;99362.38;;;25.95;54.87
35704;BME280;21820;51.112;13.762;2023-07-22T09:45:23;99379.84;;;26.04;54.93
35704;BME280;21820;51.112;13.762;2023-07-22T09:47:50;99366.13;;;26.09;55.49
35704;BME280;21820;51.112;13.762;2023-07-22T09:50:18;99360.50;;;26.12;54.94
35704;BME280;21820;51.112;13.762;2023-07-22T09:53:01;99372.81;;;26.19;55.71
35704;BME280;21820;51.112;13.762;2023-07-22T09:55:30;99369.38;;;26.19;54.86
35704;BME280;21820;51.112;13.762;2023-07-22T09:57:58;99358.63;;;26.20;55.18
35704;BME280;21820;51.112;13.762;2023-07-22T10:00:26;99367.19;;;26.22;55.56
35704;BME280;21820;51.112;13.762;2023-07-22T10:02:56;99360.94;;;26.23;55.57
35704;BME280;21820;51.112;13.762;2023-07-22T10:05:21;99358.09;;;26.25;55.39
35704;BME280;21820;51.112;13.762;2023-07-22T10:07:52;99352.84;;;26.25;55.83
35704;BME280;21820;51.112;13.762;2023-07-22T10:10:19;99368.81;;;26.23;55.47
35704;BME280;21820;51.112;13.762;2023-07-22T10:12:45;99349.00;;;25.74;52.16
35704;BME280;21820;51.112;13.762;2023-07-22T10:15:13;99364.84;;;25.66;50.74
35704;BME280;21820;51.112;13.762;2023-07-22T10:17:43;99357.13;;;25.64;52.40
35704;BME280;21820;51.112;13.762;2023-07-22T10:20:10;99358.81;;;25.88;54.72
35704;BME280;21820;51.112;13.762;2023-07-22T10:22:43;99359.09;;;26.01;55.02
35704;BME280;21820;51.112;13.762;2023-07-22T10:25:11;99354.75;;;26.08;55.14
35704;BME280;21820;51.112;13.762;2023-07-22T10:27:37;99353.44;;;26.12;55.09
35704;BME280;21820;51.112;13.762;2023-07-22T10:30:05;99356.72;;;26.14;55.32
35704;BME280;21820;51.112;13.762;2023-07-22T10:32:47;99353.38;;;26.20;55.97
35704;BME280;21820;51.112;13.762;2023-07-22T10:38:13;99354.69;;;26.24;55.63
35704;BME280;21820;51.112;13.762;2023-07-22T10:40:52;99351.03;;;26.25;55.75
35704;BME280;21820;51.112;13.762;2023-07-22T10:43:23;99346.78;;;26.24;55.11
35704;BME280;21820;51.112;13.762;2023-07-22T10:45:51;99352.03;;;26.24;55.27
35704;BME280;21820;51.112;13.762;2023-07-22T10:48:17;99349.41;;;26.24;55.80
35704;BME280;21820;51.112;13.762;2023-07-22T10:51:13;99353.91;;;25.77;51.53
35704;BME280;21820;51.112;13.762;2023-07-22T10:53:44;99347.41;;;25.65;51.25
35704;BME280;21820;51.112;13.762;2023-07-22T10:56:30;99354.31;;;25.66;54.50
35704;BME280;21820;51.112;13.762;2023-07-22T10:58:57;99362.25;;;25.89;54.89
35704;BME280;21820;51.112;13.762;2023-07-22T11:06:34;99348.50;;;26.09;55.35
35704;BME280;21820;51.112;13.762;2023-07-22T11:09:00;99351.81;;;26.11;55.19
35704;BME280;21820;51.112;13.762;2023-07-22T11:11:39;99346.66;;;26.18;55.28
35704;BME280;21820;51.112;13.762;2023-07-22T11:14:16;99350.75;;;26.20;55.27
35704;BME280;21820;51.112;13.762;2023-07-22T11:16:44;99346.47;;;26.19;55.26
35704;BME280;21820;51.112;13.762;2023-07-22T11:19:09;99346.47;;;26.19;55.49
35704;BME280;21820;51.112;13.762;2023-07-22T11:21:35;99352.41;;;26.21;55.52
35704;BME280;21820;51.112;13.762;2023-07-22T11:24:03;99339.22;;;26.21;55.57
35704;BME280;21820;51.112;13.762;2023-07-22T11:26:29;99354.38;;;26.19;55.42
35704;BME280;21820;51.112;13.762;2023-07-22T11:28:54;99339.59;;;25.80;51.68
35704;BME280;21820;51.112;13.762;2023-07-22T11:31:20;99344.13;;;25.63;51.32
35704;BME280;21820;51.112;13.762;2023-07-22T11:33:45;99331.47;;;25.58;51.51
35704;BME280;21820;51.112;13.762;2023-07-22T11:36:12;99324.94;;;25.77;54.52
35704;BME280;21820;51.112;13.762;2023-07-22T11:38:38;99333.41;;;25.95;54.69
35704;BME280;21820;51.112;13.762;2023-07-22T11:41:04;99331.56;;;26.04;55.27
35704;BME280;21820;51.112;13.762;2023-07-22T11:43:29;99323.78;;;26.10;55.04
35704;BME280;21820;51.112;13.762;2023-07-22T11:45:55;99325.28;;;26.13;55.07
35704;BME280;21820;51.112;13.762;2023-07-22T11:48:20;99314.56;;;26.14;55.07
35704;BME280;21820;51.112;13.762;2023-07-22T11:50:46;99316.84;;;26.17;54.90
35704;BME280;21820;51.112;13.762;2023-07-22T11:53:11;99315.81;;;26.18;55.04
35704;BME280;21820;51.112;13.762;2023-07-22T11:55:38;99317.66;;;26.18;55.86
35704;BME280;21820;51.112;13.762;2023-07-22T11:58:03;99324.38;;;26.20;55.45
35704;BME280;21820;51.112;13.762;2023-07-22T12:00:29;99302.72;;;26.10;55.49
35704;BME280;21820;51.112;13.762;2023-07-22T12:02:54;99311.22;;;26.20;55.00
35704;BME280;21820;51.112;13.762;2023-07-22T12:05:22;99295.63;;;26.11;55.50
35704;BME280;21820;51.112;13.762;2023-07-22T12:07:47;99312.91;;;25.83;51.55
35704;BME280;21820;51.112;13.762;2023-07-22T12:10:15;99316.78;;;25.64;51.79
35704;BME280;21820;51.112;13.762;2023-07-22T12:12:45;99318.59;;;25.63;51.29
35704;BME280;21820;51.112;13.762;2023-07-22T12:15:16;99319.00;;;25.83;55.11
35704;BME280;21820;51.112;13.762;2023-07-22T12:17:48;99321.91;;;25.96;55.02
35704;BME280;21820;51.112;13.762;2023-07-22T12:20:16;99314.94;;;26.03;54.70
35704;BME280;21820;51.112;13.762;2023-07-22T12:22:41;99317.06;;;26.08;54.81
35704;BME280;21820;51.112;13.762;2023-07-22T12:25:08;99314.91;;;26.11;55.58
35704;BME280;21820;51.112;13.762;2023-07-22T12:27:34;99314.72;;;26.13;55.14
35704;BME280;21820;51.112;13.762;2023-07-22T12:29:59;99316.38;;;26.14;55.19
35704;BME280;21820;51.112;13.762;2023-07-22T12:32:24;99310.91;;;26.15;55.07
35704;BME280;21820;51.112;13.762;2023-07-22T12:34:49;99303.00;;;26.15;55.16
35704;BME280;21820;51.112;13.762;2023-07-22T12:37:15;99303.00;;;26.15;55.44
35704;BME280;21820;51.112;13.762;2023-07-22T12:39:41;99312.56;;;26.16;55.09
35704;BME280;21820;51.112;13.762;2023-07-22T12:42:06;99302.66;;;26.18;55.34
35704;BME280;21820;51.112;13.762;2023-07-22T12:44:31;99296.47;;;26.11;53.41
35704;BME280;21820;51.112;13.762;2023-07-22T12:46:57;99303.88;;;25.77;51.84
35704;BME280;21820;51.112;13.762;2023-07-22T12:49:22;99306.63;;;25.61;51.51
35704;BME280;21820;51.112;13.762;2023-07-22T12:51:48;99306.91;;;25.66;52.92
35704;BME280;21820;51.112;13.762;2023-07-22T12:54:13;99308.13;;;25.86;54.40
35704;BME280;21820;51.112;13.762;2023-07-22T12:56:38;99297.19;;;25.97;54.88